Pachuta, MS (39347)

10:24 PM CST on March 02, 2015 (GMT -0600)
Key | Change Station
CLOSE
Current Station
Airport
Location: Meridian,
Elevation: 308 ft
Nearby Weather Stations
Active Advisory: Dense Fog Advisory

Elev 308 ft 32.33 °N, 88.75 °W | Updated 26 minutes ago

Overcast
Overcast
52 °F
Feels Like 52 °F
N
5
Wind Variable Wind from NE

Today
High -- | Low -- °F
--% Chance of Precip.
Yesterday
High -- | Low -- °F
Precip. -- in
6:21 AM 5:53 PM
Waxing Gibbous, 94% visible
Pressure 30.24 in
Visibility 5.0 miles
Clouds Overcast 400 ft
Dew Point 51 °F
Humidity 97%
Rainfall 0.15 in
Snow Depth Not available.
UV 0 out of 12
Pollen 3.40 out of 12
Air Quality Not available.
Flu Activity Not available.
METAR KMEI 030358Z AUTO 04004KT 5SM BR OVC004 11/11 A3024 RMK AO2 RAE04 SLP239 P0000 T01110106

More Conditions Fewer Conditions

Pressure 30.24 in
Visibility 5.0 miles
Clouds Overcast 400 ft
Dew Point 51 °F
Humidity 97%
Rainfall 0.15 in
Snow Depth Not available.
UV 0 out of 12
Pollen 3.40 out of 12
Air Quality Not available.
Flu Activity Not available.
METAR KMEI 030358Z AUTO 04004KT 5SM BR OVC004 11/11 A3024 RMK AO2 RAE04 SLP239 P0000 T01110106

More Conditions Fewer Conditions

10-Day Weather Forecast

Almanac

Astronomy

Mar. 02, 2015 Rise Set
Actual Time
Civil Twilight
Nautical Twilight
Astronomical Twilight
Moon
Length of Visible Light
Length of Day
Tomorrow will be .
, % of the Moon is Illuminated

Today's Extremes

State Highs State Lows

Community

WunderPhotos

Upload Photos

1,802,064 photos uploaded!

WunderBlogs® & News

Nearby

Air Quality

  Air Quality AQ Index Pollutant
Not available.

Snow Depth

Station Depth Elevation

Earthquake Activity

City Distance Mag. Time & Date
Minimum magnitude displayed is 2.5.

Coastal Water Temperatures

Place Temperature

Nearby Weather Stations

Dense Fog Advisory
Statement as of 9:03 PM CST on March 02, 2015

... Dense fog advisory remains in effect until 9 am CST Tuesday...

A dense fog advisory remains in effect until 9 am CST Tuesday.

* Visibility... less than one-quarter of a mile

* impacts... reduced visibility will create hazardous travel.
Local fluctuations in visibility can be expected... .so
motorists may encounter rapid visibility reductions.

Precautionary/preparedness actions...

A dense fog advisory means visibilities will frequently be
reduced to less than one quarter mile. If driving... slow down...
use your headlights... and leave plenty of distance ahead of you.